Time;durP1;ratioP1;P1;durP2;ratioP2;P2;SDS_P1;SDS_P2;PMS_P1;PMS_P2;Temp;Humidity;BMP_temperature;BMP_pressure;BME280_temperature;BME280_humidity;BME280_pressure;Samples;Min_cycle;Max_cycle;Signal;HPM_P1;HPM_P2
2022/01/22 00:01:18;;;;;;;4.40;1.17;;;;;;;;;;5055091;28;20536;-70
2022/01/22 00:03:45;;;;;;;3.80;1.10;;;;;;;;;;5050346;28;20538;-70
2022/01/22 00:06:12;;;;;;;1.77;0.80;;;;;;;;;;5066614;28;20447;-70
2022/01/22 00:08:38;;;;;;;3.83;1.10;;;;;;;;;;5044738;28;20482;-70
2022/01/22 00:11:05;;;;;;;5.50;1.10;;;;;;;;;;5047968;28;20463;-70
2022/01/22 00:16:24;;;;;;;4.37;0.90;;;;;;;;;;5016195;28;20469;-70
2022/01/22 00:18:51;;;;;;;7.23;1.40;;;;;;;;;;5036366;28;20466;-70
2022/01/22 00:21:17;;;;;;;3.83;1.30;;;;;;;;;;5030786;28;20548;-70
2022/01/22 00:23:54;;;;;;;4.33;1.33;;;;;;;;;;5029086;28;20460;-70
2022/01/22 00:26:21;;;;;;;2.70;1.17;;;;;;;;;;5032679;28;21082;-70
2022/01/22 00:28:48;;;;;;;6.33;1.30;;;;;;;;;;5036337;28;20811;-70
2022/01/22 00:31:15;;;;;;;3.53;1.20;;;;;;;;;;5042549;28;20448;-70
2022/01/22 00:33:43;;;;;;;3.03;1.10;;;;;;;;;;5036170;28;20464;-70
2022/01/22 00:36:10;;;;;;;2.87;1.30;;;;;;;;;;5054406;28;20469;-70
2022/01/22 00:38:37;;;;;;;7.13;1.00;;;;;;;;;;5040489;28;20535;-70
2022/01/22 00:41:04;;;;;;;3.83;1.10;;;;;;;;;;5026307;28;20562;-70
2022/01/22 00:43:30;;;;;;;3.40;1.20;;;;;;;;;;5021562;28;20530;-70
2022/01/22 00:45:57;;;;;;;3.60;1.07;;;;;;;;;;5053477;28;20451;-70
2022/01/22 00:48:24;;;;;;;2.70;1.00;;;;;;;;;;5028306;28;20548;-70
2022/01/22 00:50:54;;;;;;;4.93;1.10;;;;;;;;;;5032156;28;20464;-70
2022/01/22 00:53:21;;;;;;;2.07;0.60;;;;;;;;;;5028117;28;20467;-70
2022/01/22 00:55:47;;;;;;;3.90;0.70;;;;;;;;;;5046594;28;20453;-70
2022/01/22 00:58:14;;;;;;;3.77;1.10;;;;;;;;;;5039350;28;21004;-70
2022/01/22 01:00:40;;;;;;;4.60;1.30;;;;;;;;;;5051736;28;20521;-70
2022/01/22 01:03:07;;;;;;;4.03;1.10;;;;;;;;;;5056783;28;20578;-70
2022/01/22 01:37:52;;;;;;;5.60;1.20;;;;;;;;;;4737801;28;22611;-70
2022/01/22 01:40:21;;;;;;;4.07;1.17;;;;;;;;;;5048320;28;20447;-70
2022/01/22 01:45:24;;;;;;;2.03;0.90;;;;;;;;;;5057008;28;20442;-70
2022/01/22 01:47:53;;;;;;;1.73;0.90;;;;;;;;;;5064284;28;20503;-70
2022/01/22 01:50:19;;;;;;;2.27;0.90;;;;;;;;;;5066078;28;20468;-70
2022/01/22 01:52:52;;;;;;;3.53;1.20;;;;;;;;;;5049165;28;20536;-70
2022/01/22 01:55:34;;;;;;;4.73;1.40;;;;;;;;;;5054815;27;20457;-70
2022/01/22 01:58:11;;;;;;;3.30;1.20;;;;;;;;;;5061507;28;20466;-70
2022/01/22 02:00:41;;;;;;;3.33;0.80;;;;;;;;;;5057056;28;20665;-70
2022/01/22 02:03:09;;;;;;;4.33;1.27;;;;;;;;;;5041714;28;20464;-70
2022/01/22 02:05:38;;;;;;;4.40;1.07;;;;;;;;;;5050975;28;20453;-70
2022/01/22 02:08:06;;;;;;;3.57;1.10;;;;;;;;;;5048988;28;20458;-70
2022/01/22 02:10:44;;;;;;;5.10;1.20;;;;;;;;;;5049474;28;20489;-70
2022/01/22 02:24:51;;;;;;;2.60;1.33;;;;;;;;;;5050837;28;20490;-70
2022/01/22 02:27:18;;;;;;;5.60;1.20;;;;;;;;;;5052715;28;22310;-70
2022/01/22 02:29:45;;;;;;;3.53;0.87;;;;;;;;;;5040853;28;20460;-70
2022/01/22 02:35:24;;;;;;;5.20;1.00;;;;;;;;;;5072786;28;20482;-70
2022/01/22 02:38:06;;;;;;;2.63;1.33;;;;;;;;;;5055002;28;20462;-70
2022/01/22 02:40:41;;;;;;;4.10;1.13;;;;;;;;;;5058078;28;20968;-70
2022/01/22 02:43:10;;;;;;;2.27;1.10;;;;;;;;;;5045715;28;20465;-70
2022/01/22 02:45:38;;;;;;;2.63;1.00;;;;;;;;;;5060053;28;20459;-70
2022/01/22 02:48:05;;;;;;;3.00;0.90;;;;;;;;;;5050341;28;20554;-70
2022/01/22 02:50:31;;;;;;;2.70;0.90;;;;;;;;;;5054931;28;20494;-70
2022/01/22 02:53:08;;;;;;;3.40;1.10;;;;;;;;;;5044030;28;20965;-70
2022/01/22 02:55:35;;;;;;;2.67;1.13;;;;;;;;;;5054742;28;20500;-70
2022/01/22 02:58:02;;;;;;;2.37;1.13;;;;;;;;;;5042121;28;21162;-70
2022/01/22 03:00:28;;;;;;;3.47;0.83;;;;;;;;;;5053884;28;20466;-70
2022/01/22 03:02:55;;;;;;;1.03;0.40;;;;;;;;;;5071237;28;20931;-70
2022/01/22 03:05:26;;;;;;;5.33;0.93;;;;;;;;;;5059840;28;20470;-70
2022/01/22 03:07:55;;;;;;;5.57;1.90;;;;;;;;;;5054767;28;20467;-70
2022/01/22 03:10:25;;;;;;;3.33;1.03;;;;;;;;;;5051666;28;20464;-70
2022/01/22 03:13:39;;;;;;;4.33;1.03;;;;;;;;;;5041899;28;20459;-69
2022/01/22 03:29:38;;;;;;;6.07;1.10;;;;;;;;;;5058070;28;20463;-70
2022/01/22 03:32:07;;;;;;;3.20;1.10;;;;;;;;;;5043090;28;21300;-70
2022/01/22 03:34:43;;;;;;;2.17;0.93;;;;;;;;;;5063785;28;20546;-70
2022/01/22 03:37:10;;;;;;;2.97;0.87;;;;;;;;;;5059523;28;20471;-70
2022/01/22 03:39:37;;;;;;;3.63;1.13;;;;;;;;;;5050556;28;20521;-70
2022/01/22 03:42:04;;;;;;;2.83;1.10;;;;;;;;;;5029326;28;20593;-70
2022/01/22 03:44:31;;;;;;;2.93;0.80;;;;;;;;;;5058753;28;20532;-70
2022/01/22 03:46:59;;;;;;;3.07;0.83;;;;;;;;;;5062489;28;20459;-70
2022/01/22 03:49:26;;;;;;;1.27;0.43;;;;;;;;;;5060866;28;20563;-70
2022/01/22 03:51:53;;;;;;;4.87;0.87;;;;;;;;;;5049057;28;20481;-70
2022/01/22 03:54:19;;;;;;;5.47;0.90;;;;;;;;;;5067387;28;20451;-69
2022/01/22 03:56:47;;;;;;;3.10;0.80;;;;;;;;;;5062823;28;20278;-70
2022/01/22 03:59:34;;;;;;;3.03;0.83;;;;;;;;;;5045495;28;20455;-70
2022/01/22 04:05:02;;;;;;;2.37;0.67;;;;;;;;;;5048632;28;20463;-70
2022/01/22 04:10:02;;;;;;;3.37;0.90;;;;;;;;;;5062905;28;20454;-70
2022/01/22 04:13:06;;;;;;;4.63;0.70;;;;;;;;;;5063732;28;20462;-70
2022/01/22 04:15:25;;;;;;;5.20;0.97;;;;;;;;;;5053256;28;20458;-70
2022/01/22 04:28:59;;;;;;;5.40;1.00;;;;;;;;;;5023437;28;20475;-70
2022/01/22 04:31:26;;;;;;;1.90;1.10;;;;;;;;;;5053279;28;20544;-70
2022/01/22 04:33:52;;;;;;;2.57;1.10;;;;;;;;;;5055930;28;20474;-70
2022/01/22 04:36:19;;;;;;;2.73;0.77;;;;;;;;;;5079578;28;21029;-70
2022/01/22 04:38:46;;;;;;;3.63;0.87;;;;;;;;;;5055318;28;20472;-70
2022/01/22 04:41:14;;;;;;;2.53;0.70;;;;;;;;;;5024713;28;20464;-70
2022/01/22 04:43:42;;;;;;;2.70;1.10;;;;;;;;;;5028258;28;20523;-70
2022/01/22 04:56:56;;;;;;;1.50;0.90;;;;;;;;;;5063928;28;20463;-70
2022/01/22 04:59:23;;;;;;;6.67;0.70;;;;;;;;;;5059573;28;21363;-70
2022/01/22 05:01:50;;;;;;;2.83;0.90;;;;;;;;;;5044071;28;20471;-69
2022/01/22 05:04:24;;;;;;;2.40;0.70;;;;;;;;;;5061057;27;20940;-70
2022/01/22 05:07:11;;;;;;;1.53;0.70;;;;;;;;;;5055250;28;20964;-70
2022/01/22 05:09:46;;;;;;;3.93;0.97;;;;;;;;;;5040238;28;20456;-70
2022/01/22 05:12:13;;;;;;;2.73;0.90;;;;;;;;;;5007810;28;20467;-70
2022/01/22 05:14:41;;;;;;;4.07;1.20;;;;;;;;;;5017220;28;20476;-70
2022/01/22 05:17:09;;;;;;;2.77;0.90;;;;;;;;;;5038177;28;20459;-70
2022/01/22 05:22:15;;;;;;;3.93;0.73;;;;;;;;;;5033205;28;20468;-70
2022/01/22 05:24:48;;;;;;;3.10;0.73;;;;;;;;;;5017381;28;20454;-70
2022/01/22 05:38:43;;;;;;;4.07;0.97;;;;;;;;;;5044046;28;20827;-70
2022/01/22 05:41:10;;;;;;;2.30;0.90;;;;;;;;;;5027887;28;20544;-70
2022/01/22 05:43:37;;;;;;;2.37;1.00;;;;;;;;;;5026287;28;20479;-70
2022/01/22 05:46:03;;;;;;;2.50;0.80;;;;;;;;;;5022356;28;20487;-70
2022/01/22 05:48:30;;;;;;;3.37;1.20;;;;;;;;;;5039339;28;20459;-70
2022/01/22 05:51:02;;;;;;;4.67;0.83;;;;;;;;;;5044143;28;20520;-70
2022/01/22 06:01:44;;;;;;;2.50;0.90;;;;;;;;;;5030564;28;20499;-70
2022/01/22 06:04:18;;;;;;;3.20;0.97;;;;;;;;;;5023410;28;20469;-69
2022/01/22 06:06:47;;;;;;;5.57;1.17;;;;;;;;;;5040104;28;20467;-70
2022/01/22 06:09:14;;;;;;;4.43;1.10;;;;;;;;;;5044320;28;20956;-70
2022/01/22 06:14:22;;;;;;;3.17;0.73;;;;;;;;;;5039442;28;20452;-69
2022/01/22 06:16:49;;;;;;;5.87;0.90;;;;;;;;;;5058118;28;20468;-69
2022/01/22 06:19:27;;;;;;;2.63;1.10;;;;;;;;;;5034720;28;20457;-69
2022/01/22 06:21:54;;;;;;;2.30;1.83;;;;;;;;;;5037757;28;20468;-69
2022/01/22 06:24:21;;;;;;;1.77;0.90;;;;;;;;;;5018985;28;20487;-68
2022/01/22 06:26:48;;;;;;;4.33;1.53;;;;;;;;;;5008979;28;20488;-66
2022/01/22 06:29:15;;;;;;;5.30;1.63;;;;;;;;;;5009252;28;20862;-65
2022/01/22 06:31:43;;;;;;;1.83;1.17;;;;;;;;;;5010297;28;20464;-66
2022/01/22 06:34:09;;;;;;;7.00;4.27;;;;;;;;;;5027220;28;20859;-67
2022/01/22 06:36:38;;;;;;;4.50;1.30;;;;;;;;;;5029538;28;20456;-67
2022/01/22 06:39:17;;;;;;;4.27;1.83;;;;;;;;;;5038334;28;20475;-66
2022/01/22 06:42:02;;;;;;;5.03;1.90;;;;;;;;;;5003459;28;20460;-67
2022/01/22 06:44:34;;;;;;;5.93;1.77;;;;;;;;;;5018610;28;20474;-67
2022/01/22 06:47:20;;;;;;;5.13;1.80;;;;;;;;;;5003248;28;21329;-66
2022/01/22 06:50:03;;;;;;;4.80;1.43;;;;;;;;;;5008927;28;20507;-65
2022/01/22 06:52:55;;;;;;;7.33;1.60;;;;;;;;;;5001606;28;20595;-67
2022/01/22 06:55:41;;;;;;;10.97;5.93;;;;;;;;;;4994634;28;20465;-68
2022/01/22 06:58:09;;;;;;;17.30;7.77;;;;;;;;;;5008185;28;22113;-67
2022/01/22 07:00:40;;;;;;;6.03;2.33;;;;;;;;;;5001164;28;20464;-66
2022/01/22 07:03:21;;;;;;;14.63;6.57;;;;;;;;;;5015243;28;20457;-67
2022/01/22 07:05:57;;;;;;;17.77;7.20;;;;;;;;;;5019901;28;20445;-66
2022/01/22 07:08:28;;;;;;;34.63;14.13;;;;;;;;;;5022321;28;20465;-67
2022/01/22 07:10:58;;;;;;;15.80;5.57;;;;;;;;;;5020495;28;20309;-67
2022/01/22 07:13:26;;;;;;;45.30;17.17;;;;;;;;;;5028034;28;20467;-67
2022/01/22 07:15:54;;;;;;;36.90;16.07;;;;;;;;;;5004616;28;20959;-66
2022/01/22 07:18:22;;;;;;;9.67;3.40;;;;;;;;;;5022888;28;21001;-66
2022/01/22 07:20:51;;;;;;;5.50;2.10;;;;;;;;;;5016881;28;20478;-67
2022/01/22 07:23:54;;;;;;;28.43;12.97;;;;;;;;;;5016477;28;20848;-67
2022/01/22 07:26:14;;;;;;;6.97;3.90;;;;;;;;;;5011432;28;20498;-68
2022/01/22 07:28:51;;;;;;;11.30;5.03;;;;;;;;;;5026139;28;21574;-66
2022/01/22 07:31:20;;;;;;;15.00;7.10;;;;;;;;;;5011175;28;20475;-65
2022/01/22 07:33:47;;;;;;;10.57;5.33;;;;;;;;;;5027281;28;20444;-67
2022/01/22 07:36:15;;;;;;;9.57;4.37;;;;;;;;;;5027765;28;20583;-65
2022/01/22 07:38:42;;;;;;;7.00;3.50;;;;;;;;;;5022636;28;20296;-67
2022/01/22 07:41:12;;;;;;;9.87;3.87;;;;;;;;;;4995561;28;20465;-67
2022/01/22 07:43:58;;;;;;;6.20;1.70;;;;;;;;;;5005350;28;51924;-66
2022/01/22 07:46:27;;;;;;;4.63;1.87;;;;;;;;;;5007991;28;20465;-67
2022/01/22 07:49:07;;;;;;;5.77;1.80;;;;;;;;;;4999397;28;20511;-67
2022/01/22 07:51:46;;;;;;;7.43;2.47;;;;;;;;;;5028021;28;21190;-66
2022/01/22 07:54:12;;;;;;;5.70;1.80;;;;;;;;;;5018414;28;20464;-67
2022/01/22 07:56:39;;;;;;;8.37;2.93;;;;;;;;;;5030053;28;20465;-67
2022/01/22 07:59:07;;;;;;;9.97;1.87;;;;;;;;;;5036336;28;20469;-67
2022/01/22 08:01:40;;;;;;;5.60;2.50;;;;;;;;;;5021823;28;20472;-67
2022/01/22 08:04:23;;;;;;;3.50;1.80;;;;;;;;;;5029217;28;20457;-68
2022/01/22 08:07:09;;;;;;;5.03;1.73;;;;;;;;;;5027445;28;20584;-68
2022/01/22 08:10:02;;;;;;;4.07;1.87;;;;;;;;;;5020634;28;20951;-67
2022/01/22 08:12:39;;;;;;;5.97;1.70;;;;;;;;;;5020020;28;20455;-68
2022/01/22 08:15:08;;;;;;;6.40;2.50;;;;;;;;;;5022515;28;21282;-67
2022/01/22 08:17:34;;;;;;;5.80;1.93;;;;;;;;;;5012680;28;20456;-68
2022/01/22 08:20:02;;;;;;;4.43;2.03;;;;;;;;;;5042356;28;20543;-67
2022/01/22 08:22:55;;;;;;;5.03;2.23;;;;;;;;;;5026055;28;20448;-67
2022/01/22 08:25:31;;;;;;;7.83;2.23;;;;;;;;;;5015666;28;20537;-68
2022/01/22 08:31:05;;;;;;;5.93;2.07;;;;;;;;;;5039317;28;20452;-68
2022/01/22 08:36:18;;;;;;;7.57;2.33;;;;;;;;;;5042962;28;20466;-68
2022/01/22 08:38:46;;;;;;;7.33;2.37;;;;;;;;;;5038934;28;20463;-68
2022/01/22 08:41:13;;;;;;;7.83;2.93;;;;;;;;;;5030786;28;20477;-68
2022/01/22 08:43:42;;;;;;;6.33;2.73;;;;;;;;;;5032289;28;20461;-68
2022/01/22 08:46:09;;;;;;;6.30;2.47;;;;;;;;;;5018272;28;20469;-68
2022/01/22 08:48:36;;;;;;;6.53;2.20;;;;;;;;;;5019122;28;20484;-68
2022/01/22 08:51:03;;;;;;;7.00;2.67;;;;;;;;;;5041881;28;20452;-68
2022/01/22 08:53:49;;;;;;;6.60;1.90;;;;;;;;;;5038314;28;20445;-68
2022/01/22 08:56:17;;;;;;;6.03;1.60;;;;;;;;;;5032088;28;20457;-68
2022/01/22 08:58:45;;;;;;;4.23;1.57;;;;;;;;;;5034742;28;20939;-68
2022/01/22 09:01:38;;;;;;;3.97;1.67;;;;;;;;;;5019176;28;20521;-68
2022/01/22 09:04:14;;;;;;;4.43;2.17;;;;;;;;;;5020640;28;20515;-69
2022/01/22 09:07:04;;;;;;;5.90;1.80;;;;;;;;;;5013071;28;20491;-69
2022/01/22 09:09:51;;;;;;;4.90;2.10;;;;;;;;;;5021265;28;20452;-68
2022/01/22 09:12:39;;;;;;;7.37;3.17;;;;;;;;;;5006903;28;20589;-68
2022/01/22 09:15:33;;;;;;;4.70;2.27;;;;;;;;;;5024578;28;20460;-68
2022/01/22 09:18:02;;;;;;;4.70;1.83;;;;;;;;;;5027932;28;20489;-69
2022/01/22 09:23:12;;;;;;;6.07;1.87;;;;;;;;;;5018076;28;34933;-68
2022/01/22 09:25:41;;;;;;;4.63;1.97;;;;;;;;;;5021830;28;23130;-67
2022/01/22 09:28:11;;;;;;;6.80;2.30;;;;;;;;;;5030918;28;20467;-67
2022/01/22 09:30:40;;;;;;;6.17;2.30;;;;;;;;;;5038367;28;20455;-67
2022/01/22 09:33:07;;;;;;;10.23;3.13;;;;;;;;;;5030685;28;21585;-66
2022/01/22 09:35:51;;;;;;;5.70;2.20;;;;;;;;;;5032702;28;20788;-67
2022/01/22 09:38:31;;;;;;;7.70;2.10;;;;;;;;;;5031775;28;20313;-66
2022/01/22 09:41:16;;;;;;;4.07;1.50;;;;;;;;;;5050471;28;20972;-66
2022/01/22 09:44:01;;;;;;;4.20;1.97;;;;;;;;;;5015585;28;20983;-67
2022/01/22 09:46:28;;;;;;;3.90;1.60;;;;;;;;;;5047716;28;21040;-66
2022/01/22 09:49:07;;;;;;;4.23;1.60;;;;;;;;;;5024837;28;20465;-66
2022/01/22 09:52:01;;;;;;;3.07;1.70;;;;;;;;;;5024260;28;20453;-65
2022/01/22 09:54:47;;;;;;;5.90;2.00;;;;;;;;;;5017178;28;27598;-67
2022/01/22 09:57:37;;;;;;;4.47;1.47;;;;;;;;;;5032079;28;20448;-69
2022/01/22 10:00:25;;;;;;;6.80;2.40;;;;;;;;;;5040034;28;20591;-70
2022/01/22 10:02:57;;;;;;;8.50;2.43;;;;;;;;;;5040117;28;20515;-73
2022/01/22 10:05:48;;;;;;;8.13;2.30;;;;;;;;;;5038193;28;20464;-69
2022/01/22 10:09:05;;;;;;;6.37;2.13;;;;;;;;;;4965056;28;229789;-74
2022/01/22 10:12:11;;;;;;;5.33;2.00;;;;;;;;;;4980517;28;20466;-75
2022/01/22 10:15:07;;;;;;;4.87;1.30;;;;;;;;;;5019283;28;20458;-71
2022/01/22 10:17:37;;;;;;;6.00;1.60;;;;;;;;;;5036804;28;20470;-73
2022/01/22 10:20:04;;;;;;;4.43;1.47;;;;;;;;;;5023510;28;20459;-72
2022/01/22 10:22:44;;;;;;;2.83;1.27;;;;;;;;;;5004021;28;20441;-71
2022/01/22 10:25:26;;;;;;;5.03;1.40;;;;;;;;;;5005563;28;20257;-71
2022/01/22 10:27:55;;;;;;;5.20;1.83;;;;;;;;;;5026459;28;20465;-72
2022/01/22 10:30:22;;;;;;;6.93;1.97;;;;;;;;;;5024974;28;30989;-70
2022/01/22 10:32:54;;;;;;;4.77;1.83;;;;;;;;;;5037273;28;22962;-71
2022/01/22 10:35:46;;;;;;;5.90;2.30;;;;;;;;;;5025625;28;20491;-71
2022/01/22 10:38:21;;;;;;;6.47;2.10;;;;;;;;;;5009645;28;20461;-71
2022/01/22 10:40:55;;;;;;;4.80;1.53;;;;;;;;;;5008100;28;20457;-70
2022/01/22 10:43:33;;;;;;;4.43;1.77;;;;;;;;;;5013052;28;20452;-71
2022/01/22 10:46:01;;;;;;;7.30;3.13;;;;;;;;;;5019316;28;21088;-71
2022/01/22 10:48:28;;;;;;;7.87;2.97;;;;;;;;;;5018967;28;28019;-70
2022/01/22 10:51:00;;;;;;;9.43;3.07;;;;;;;;;;5009511;28;20460;-70
2022/01/22 10:53:42;;;;;;;6.03;2.27;;;;;;;;;;5004667;28;20588;-72
2022/01/22 10:56:10;;;;;;;6.30;2.40;;;;;;;;;;5019520;28;20528;-71
2022/01/22 10:58:47;;;;;;;7.73;2.53;;;;;;;;;;5019299;28;20461;-71
2022/01/22 11:01:14;;;;;;;9.10;2.43;;;;;;;;;;5017227;28;20500;-72
2022/01/22 11:03:41;;;;;;;8.83;2.10;;;;;;;;;;5018249;28;32608;-77
2022/01/22 11:06:09;;;;;;;5.57;1.90;;;;;;;;;;5017685;28;20552;-70
2022/01/22 11:08:35;;;;;;;8.53;2.77;;;;;;;;;;5009047;28;24879;-70
2022/01/22 11:11:02;;;;;;;5.63;2.23;;;;;;;;;;5018455;28;36715;-71
2022/01/22 11:13:29;;;;;;;7.10;2.70;;;;;;;;;;5020428;28;20251;-72
2022/01/22 11:15:56;;;;;;;6.00;1.87;;;;;;;;;;5017906;28;20456;-74
2022/01/22 11:18:23;;;;;;;5.83;2.10;;;;;;;;;;5008600;28;220412;-74
2022/01/22 11:20:50;;;;;;;5.53;2.20;;;;;;;;;;5027769;28;20478;-72
2022/01/22 11:23:17;;;;;;;5.80;2.00;;;;;;;;;;5013919;28;222150;-72
2022/01/22 11:25:44;;;;;;;6.00;2.20;;;;;;;;;;5027891;28;20460;-72
2022/01/22 11:28:11;;;;;;;4.43;1.77;;;;;;;;;;5010432;28;35434;-72
2022/01/22 11:30:43;;;;;;;5.37;2.10;;;;;;;;;;5027182;28;20527;-71
2022/01/22 11:33:11;;;;;;;8.07;2.20;;;;;;;;;;5020044;28;54810;-71
2022/01/22 11:35:56;;;;;;;4.03;2.00;;;;;;;;;;5021554;28;25315;-72
2022/01/22 11:38:27;;;;;;;5.37;1.50;;;;;;;;;;5020727;28;35910;-71
2022/01/22 11:41:11;;;;;;;6.03;2.63;;;;;;;;;;4975981;28;250117;-71
2022/01/22 11:43:53;;;;;;;4.97;2.30;;;;;;;;;;5032127;28;21772;-73
2022/01/22 11:46:26;;;;;;;5.73;1.90;;;;;;;;;;5016941;28;20579;-74
2022/01/22 11:49:09;;;;;;;5.60;1.63;;;;;;;;;;4944599;28;294483;-78
2022/01/22 11:51:36;;;;;;;2.30;1.30;;;;;;;;;;5026949;28;223182;-77
2022/01/22 11:54:03;;;;;;;4.27;1.77;;;;;;;;;;5014346;28;226085;-77
2022/01/22 11:56:31;;;;;;;4.23;1.43;;;;;;;;;;5003855;28;20487;-75
2022/01/22 11:58:58;;;;;;;5.10;1.60;;;;;;;;;;5033578;28;224680;-73
2022/01/22 12:01:52;;;;;;;6.27;1.67;;;;;;;;;;5058995;28;20454;-74
2022/01/22 12:04:22;;;;;;;5.93;1.70;;;;;;;;;;5047652;28;20588;-73
2022/01/22 12:07:01;;;;;;;4.10;1.47;;;;;;;;;;5043020;28;20807;-73
2022/01/22 12:10:05;;;;;;;5.40;1.43;;;;;;;;;;5080190;28;22275;-74
2022/01/22 12:15:12;;;;;;;5.73;1.93;;;;;;;;;;5068297;28;20711;-72
2022/01/22 12:18:11;;;;;;;4.47;1.50;;;;;;;;;;5080908;28;20465;-74
2022/01/22 12:23:05;;;;;;;4.70;1.70;;;;;;;;;;5085061;28;20447;-74
2022/01/22 12:25:35;;;;;;;6.83;2.53;;;;;;;;;;5081730;28;39650;-74
2022/01/22 12:28:02;;;;;;;4.53;2.00;;;;;;;;;;5083192;28;20453;-72
2022/01/22 12:30:36;;;;;;;5.17;1.90;;;;;;;;;;5057392;28;20811;-73
2022/01/22 12:33:05;;;;;;;5.43;2.00;;;;;;;;;;5056493;28;21190;-72
2022/01/22 12:35:36;;;;;;;7.30;1.87;;;;;;;;;;5068174;28;28857;-71
2022/01/22 12:41:13;;;;;;;6.50;2.70;;;;;;;;;;5022032;28;20490;-72
2022/01/22 12:43:43;;;;;;;5.87;2.57;;;;;;;;;;5072311;28;20495;-72
2022/01/22 12:46:10;;;;;;;5.27;2.50;;;;;;;;;;5064166;28;21047;-72
2022/01/22 12:48:38;;;;;;;6.63;2.80;;;;;;;;;;5063427;28;20255;-72
2022/01/22 12:51:06;;;;;;;5.43;2.37;;;;;;;;;;5061971;28;20876;-72
2022/01/22 12:53:36;;;;;;;7.07;3.30;;;;;;;;;;5061720;28;20455;-72
2022/01/22 12:56:35;;;;;;;6.70;3.13;;;;;;;;;;5043886;28;20458;-72
2022/01/22 12:58:50;;;;;;;7.23;3.07;;;;;;;;;;5062611;28;20451;-72
2022/01/22 13:01:17;;;;;;;6.23;2.90;;;;;;;;;;5044296;28;20496;-71
2022/01/22 13:03:46;;;;;;;6.57;2.60;;;;;;;;;;5060856;28;60422;-72
2022/01/22 13:06:12;;;;;;;6.90;3.00;;;;;;;;;;5062830;28;20475;-72
2022/01/22 13:08:58;;;;;;;8.03;2.73;;;;;;;;;;5061687;28;20462;-70
2022/01/22 13:11:33;;;;;;;4.53;2.20;;;;;;;;;;5029399;28;20537;-73
2022/01/22 13:14:00;;;;;;;6.27;2.33;;;;;;;;;;5067942;28;20471;-74
2022/01/22 13:16:26;;;;;;;7.87;3.60;;;;;;;;;;5043429;28;25550;-73
2022/01/22 13:18:57;;;;;;;7.90;4.40;;;;;;;;;;5058896;28;20954;-73
2022/01/22 13:21:26;;;;;;;5.43;2.80;;;;;;;;;;5054667;28;47607;-72
2022/01/22 13:24:04;;;;;;;8.07;3.00;;;;;;;;;;5051781;28;20447;-71
2022/01/22 13:26:56;;;;;;;7.77;3.10;;;;;;;;;;5067075;28;34758;-73
2022/01/22 13:29:27;;;;;;;5.97;2.37;;;;;;;;;;5066981;28;20950;-73
2022/01/22 13:32:01;;;;;;;6.17;2.57;;;;;;;;;;5060767;28;20533;-73
2022/01/22 13:34:38;;;;;;;5.40;2.33;;;;;;;;;;5057856;28;28029;-73
2022/01/22 13:48:27;;;;;;;11.87;5.80;;;;;;;;;;5030260;28;43434;-73
2022/01/22 13:50:55;;;;;;;8.80;4.17;;;;;;;;;;5034479;28;20530;-73
2022/01/22 13:53:22;;;;;;;5.77;2.57;;;;;;;;;;5051649;28;20459;-73
2022/01/22 13:56:00;;;;;;;5.83;2.73;;;;;;;;;;5018359;28;20460;-72
2022/01/22 13:58:27;;;;;;;7.80;2.97;;;;;;;;;;5050870;28;20447;-73
2022/01/22 14:01:00;;;;;;;5.97;2.80;;;;;;;;;;5061938;28;32670;-73
2022/01/22 14:04:04;;;;;;;8.27;4.37;;;;;;;;;;5036764;28;20455;-73
2022/01/22 14:06:34;;;;;;;7.93;4.97;;;;;;;;;;5060435;28;71810;-72
2022/01/22 14:09:13;;;;;;;12.00;5.37;;;;;;;;;;4864509;28;5088376;-73
2022/01/22 14:11:59;;;;;;;6.10;3.20;;;;;;;;;;5043397;28;20296;-73
2022/01/22 14:14:30;;;;;;;5.77;3.43;;;;;;;;;;5055645;28;21315;-72
2022/01/22 14:17:09;;;;;;;6.90;4.50;;;;;;;;;;5039721;28;20440;-73
2022/01/22 14:19:37;;;;;;;5.50;2.90;;;;;;;;;;5041767;28;20553;-73
2022/01/22 14:22:04;;;;;;;5.93;2.60;;;;;;;;;;5043155;28;20440;-73
2022/01/22 14:24:31;;;;;;;3.30;1.57;;;;;;;;;;5054155;28;20459;-73
2022/01/22 14:26:58;;;;;;;3.57;1.77;;;;;;;;;;5043676;28;20444;-73
2022/01/22 14:29:26;;;;;;;3.93;2.00;;;;;;;;;;4865331;28;5090710;-72
2022/01/22 14:31:57;;;;;;;5.03;1.73;;;;;;;;;;5039882;28;20230;-71
2022/01/22 14:34:34;;;;;;;4.07;1.57;;;;;;;;;;5039917;28;20803;-72
2022/01/22 14:37:03;;;;;;;5.40;2.07;;;;;;;;;;5041259;28;20439;-72
2022/01/22 14:43:50;;;;;;;35.90;15.93;;;;;;;;;;5038960;28;20456;-72
2022/01/22 14:45:12;;;;;;;11.37;7.40;;;;;;;;;;5027022;28;20453;-72
2022/01/22 14:47:39;;;;;;;6.00;3.57;;;;;;;;;;5039821;28;20491;-73
2022/01/22 14:50:07;;;;;;;5.50;2.83;;;;;;;;;;5041937;28;20522;-72
2022/01/22 14:52:34;;;;;;;9.90;4.30;;;;;;;;;;5036249;28;20463;-72
2022/01/22 14:55:03;;;;;;;11.00;4.10;;;;;;;;;;5038300;28;65314;-73
2022/01/22 14:57:34;;;;;;;8.70;3.97;;;;;;;;;;5035250;28;20535;-73
2022/01/22 15:00:06;;;;;;;7.57;3.53;;;;;;;;;;5031698;28;20449;-73
2022/01/22 15:02:33;;;;;;;9.00;3.20;;;;;;;;;;5012666;28;20460;-73
2022/01/22 15:05:00;;;;;;;6.57;3.13;;;;;;;;;;4989794;28;20488;-73
2022/01/22 15:07:27;;;;;;;7.17;3.13;;;;;;;;;;5028777;28;29776;-75
2022/01/22 15:09:54;;;;;;;19.93;8.83;;;;;;;;;;5006510;28;20455;-71
2022/01/22 15:12:21;;;;;;;12.93;5.77;;;;;;;;;;4853995;28;5088126;-74
2022/01/22 15:14:50;;;;;;;7.70;3.53;;;;;;;;;;5059798;28;20274;-63
2022/01/22 15:19:47;;;;;;;10.83;5.30;;;;;;;;;;5047390;28;24587;-73
2022/01/22 15:22:17;;;;;;;9.20;3.63;;;;;;;;;;5081548;28;22541;-73
2022/01/22 15:24:49;;;;;;;6.33;3.13;;;;;;;;;;5080847;28;20446;-73
2022/01/22 15:27:20;;;;;;;6.00;2.70;;;;;;;;;;5051511;28;20554;-73
2022/01/22 15:32:45;;;;;;;5.70;2.50;;;;;;;;;;5039266;28;20506;-72
2022/01/22 15:35:12;;;;;;;8.43;3.10;;;;;;;;;;5041088;28;20460;-73
2022/01/22 15:37:47;;;;;;;5.73;2.63;;;;;;;;;;5021110;28;20808;-73
2022/01/22 15:40:15;;;;;;;8.90;2.73;;;;;;;;;;5013009;28;20484;-73
2022/01/22 15:42:42;;;;;;;8.03;3.23;;;;;;;;;;5022191;28;20493;-73
2022/01/22 15:45:09;;;;;;;5.77;2.77;;;;;;;;;;5058833;28;20447;-73
2022/01/22 15:47:35;;;;;;;7.20;2.90;;;;;;;;;;5061449;28;20442;-72
2022/01/22 15:50:02;;;;;;;8.37;4.00;;;;;;;;;;5033319;28;20455;-73
2022/01/22 15:52:31;;;;;;;9.07;3.53;;;;;;;;;;5059846;28;20443;-72
2022/01/22 15:54:58;;;;;;;8.20;3.70;;;;;;;;;;5061192;28;20451;-72
2022/01/22 15:57:25;;;;;;;8.80;3.60;;;;;;;;;;5057808;28;20486;-72
2022/01/22 15:59:53;;;;;;;12.20;4.87;;;;;;;;;;5040169;28;30720;-72
2022/01/22 16:02:20;;;;;;;10.20;5.10;;;;;;;;;;5022237;28;20456;-72
2022/01/22 16:04:51;;;;;;;11.97;4.20;;;;;;;;;;5041818;28;20452;-75
2022/01/22 16:07:21;;;;;;;10.50;4.10;;;;;;;;;;5039588;28;20445;-72
2022/01/22 16:10:08;;;;;;;8.87;3.63;;;;;;;;;;5021098;28;20942;-72
2022/01/22 16:12:35;;;;;;;10.60;4.60;;;;;;;;;;5041481;28;20964;-72
2022/01/22 16:15:02;;;;;;;11.03;5.00;;;;;;;;;;5039731;28;20480;-72
2022/01/22 16:17:32;;;;;;;8.13;3.57;;;;;;;;;;5042014;28;21094;-73
2022/01/22 16:19:59;;;;;;;12.40;4.70;;;;;;;;;;5039308;28;20480;-73
2022/01/22 16:22:27;;;;;;;11.57;4.10;;;;;;;;;;5039043;28;21185;-69
2022/01/22 16:24:55;;;;;;;10.80;4.20;;;;;;;;;;5041139;28;20964;-72
2022/01/22 16:27:22;;;;;;;13.93;5.30;;;;;;;;;;5040192;28;20545;-68
2022/01/22 16:29:49;;;;;;;14.90;4.60;;;;;;;;;;5041011;28;20451;-73
2022/01/22 16:32:20;;;;;;;8.27;4.30;;;;;;;;;;5039676;28;20549;-73
2022/01/22 16:34:47;;;;;;;7.73;4.13;;;;;;;;;;5041436;28;20524;-73
2022/01/22 16:37:13;;;;;;;11.43;3.63;;;;;;;;;;5038352;28;20456;-72
2022/01/22 16:39:40;;;;;;;8.80;4.23;;;;;;;;;;5043835;28;20996;-73
2022/01/22 16:42:14;;;;;;;8.73;3.70;;;;;;;;;;5043338;28;20456;-72
2022/01/22 16:58:05;;;;;;;9.77;3.60;;;;;;;;;;5043801;28;20848;-71
2022/01/22 17:00:37;;;;;;;9.03;3.73;;;;;;;;;;5061038;28;20459;-74
2022/01/22 17:03:11;;;;;;;7.70;3.73;;;;;;;;;;5062877;28;20459;-73
2022/01/22 17:05:41;;;;;;;9.57;3.63;;;;;;;;;;5060250;28;20466;-74
2022/01/22 17:15:58;;;;;;;7.07;3.07;;;;;;;;;;5035684;28;28142;-74
2022/01/22 17:18:30;;;;;;;9.30;4.37;;;;;;;;;;5067102;28;20500;-74
2022/01/22 17:20:57;;;;;;;8.93;3.90;;;;;;;;;;5070885;28;20467;-74
2022/01/22 17:23:23;;;;;;;10.93;4.23;;;;;;;;;;5045772;28;20461;-74
2022/01/22 17:25:50;;;;;;;10.37;4.93;;;;;;;;;;5041659;28;20556;-74
2022/01/22 17:28:17;;;;;;;11.27;4.37;;;;;;;;;;5041998;28;20452;-74
2022/01/22 17:30:44;;;;;;;9.60;4.17;;;;;;;;;;5043156;28;20456;-75
2022/01/22 17:33:10;;;;;;;8.43;3.83;;;;;;;;;;5041982;28;20463;-73
2022/01/22 17:35:38;;;;;;;13.13;5.60;;;;;;;;;;5043682;28;20533;-74
2022/01/22 17:38:06;;;;;;;10.97;3.97;;;;;;;;;;5038665;28;54438;-74
2022/01/22 17:40:39;;;;;;;8.40;3.90;;;;;;;;;;5024807;28;20459;-73
2022/01/22 17:43:09;;;;;;;8.30;3.60;;;;;;;;;;5023041;28;20456;-73
2022/01/22 17:45:40;;;;;;;6.43;2.77;;;;;;;;;;5024342;28;20551;-72
2022/01/22 17:48:07;;;;;;;9.80;3.87;;;;;;;;;;5025763;28;20449;-75
2022/01/22 17:50:35;;;;;;;12.90;6.17;;;;;;;;;;5041238;28;20464;-74
2022/01/22 17:53:02;;;;;;;7.33;3.77;;;;;;;;;;5040689;28;20475;-72
2022/01/22 17:55:28;;;;;;;8.97;3.60;;;;;;;;;;5043640;28;20456;-74
2022/01/22 17:57:55;;;;;;;7.87;2.90;;;;;;;;;;5041719;28;20450;-74
2022/01/22 18:00:42;;;;;;;8.63;3.83;;;;;;;;;;5025073;28;20925;-73
2022/01/22 18:03:11;;;;;;;8.00;3.50;;;;;;;;;;5037970;28;44583;-75
2022/01/22 18:05:41;;;;;;;8.27;3.50;;;;;;;;;;4837410;28;5089068;-74